sensor_id;sensor_type;location;lat;lon;timestamp;pressure;altitude;pressure_sealevel;temperature;humidity
43691;BME280;29293;52.190;21.226;2023-04-07T00:12:46;100229.61;;;3.38;100.00
43691;BME280;29293;52.190;21.226;2023-04-07T00:27:53;100223.09;;;3.49;100.00
43691;BME280;29293;52.190;21.226;2023-04-07T00:43:00;100206.07;;;3.62;100.00
43691;BME280;29293;52.190;21.226;2023-04-07T00:58:10;100200.52;;;3.74;100.00
43691;BME280;29293;52.190;21.226;2023-04-07T01:13:24;100199.91;;;3.85;100.00
43691;BME280;29293;52.190;21.226;2023-04-07T01:28:54;100200.81;;;3.93;100.00
43691;BME280;29293;52.190;21.226;2023-04-07T01:44:04;100192.79;;;4.00;100.00
43691;BME280;29293;52.190;21.226;2023-04-07T01:59:13;100184.39;;;4.08;100.00
43691;BME280;29293;52.190;21.226;2023-04-07T02:14:20;100180.75;;;4.16;100.00
43691;BME280;29293;52.190;21.226;2023-04-07T02:29:28;100177.70;;;4.26;100.00
43691;BME280;29293;52.190;21.226;2023-04-07T02:44:35;100173.60;;;4.38;100.00
43691;BME280;29293;52.190;21.226;2023-04-07T02:59:43;100175.13;;;4.49;100.00
43691;BME280;29293;52.190;21.226;2023-04-07T03:14:52;100180.50;;;4.58;100.00
43691;BME280;29293;52.190;21.226;2023-04-07T03:30:01;100186.41;;;4.64;100.00
43691;BME280;29293;52.190;21.226;2023-04-07T04:45:17;100199.29;;;5.40;100.00
43691;BME280;29293;52.190;21.226;2023-04-07T06:03:11;100211.33;;;5.73;100.00
43691;BME280;29293;52.190;21.226;2023-04-07T06:18:18;100203.55;;;5.87;100.00
43691;BME280;29293;52.190;21.226;2023-04-07T06:39:00;100203.63;;;6.28;100.00
43691;BME280;29293;52.190;21.226;2023-04-07T06:54:08;100202.05;;;6.64;100.00
43691;BME280;29293;52.190;21.226;2023-04-07T07:09:18;100199.70;;;6.76;100.00
43691;BME280;29293;52.190;21.226;2023-04-07T07:24:28;100200.52;;;7.00;100.00
43691;BME280;29293;52.190;21.226;2023-04-07T07:39:43;100215.52;;;7.17;100.00
43691;BME280;29293;52.190;21.226;2023-04-07T07:54:53;100220.77;;;7.58;100.00
43691;BME280;29293;52.190;21.226;2023-04-07T08:10:03;100224.20;;;8.05;100.00
43691;BME280;29293;52.190;21.226;2023-04-07T08:25:11;100223.84;;;8.24;100.00
43691;BME280;29293;52.190;21.226;2023-04-07T08:40:18;100227.45;;;8.57;100.00
43691;BME280;29293;52.190;21.226;2023-04-07T08:55:25;100224.07;;;8.95;100.00
43691;BME280;29293;52.190;21.226;2023-04-07T09:10:32;100230.11;;;8.78;100.00
43691;BME280;29293;52.190;21.226;2023-04-07T09:25:39;100229.57;;;8.70;100.00
43691;BME280;29293;52.190;21.226;2023-04-07T09:40:47;100220.85;;;8.98;100.00
43691;BME280;29293;52.190;21.226;2023-04-07T09:55:54;100220.22;;;9.26;100.00
43691;BME280;29293;52.190;21.226;2023-04-07T10:11:02;100223.23;;;9.46;100.00
43691;BME280;29293;52.190;21.226;2023-04-07T10:26:12;100229.60;;;9.67;100.00
43691;BME280;29293;52.190;21.226;2023-04-07T10:41:33;100234.11;;;10.00;100.00
43691;BME280;29293;52.190;21.226;2023-04-07T11:12:24;100246.02;;;10.56;100.00
43691;BME280;29293;52.190;21.226;2023-04-07T11:27:31;100253.86;;;10.51;100.00
43691;BME280;29293;52.190;21.226;2023-04-07T11:42:39;100267.17;;;10.33;100.00
43691;BME280;29293;52.190;21.226;2023-04-07T11:57:46;100273.14;;;10.27;100.00
43691;BME280;29293;52.190;21.226;2023-04-07T12:12:55;100274.20;;;10.77;100.00
43691;BME280;29293;52.190;21.226;2023-04-07T12:28:06;100285.02;;;11.22;100.00
43691;BME280;29293;52.190;21.226;2023-04-07T12:43:13;100301.00;;;11.18;100.00
43691;BME280;29293;52.190;21.226;2023-04-07T12:58:20;100303.27;;;11.07;100.00
43691;BME280;29293;52.190;21.226;2023-04-07T13:13:28;100326.94;;;10.90;100.00
43691;BME280;29293;52.190;21.226;2023-04-07T13:28:37;100348.35;;;10.73;100.00
43691;BME280;29293;52.190;21.226;2023-04-07T13:43:46;100355.48;;;10.47;100.00
43691;BME280;29293;52.190;21.226;2023-04-07T13:58:52;100361.27;;;10.58;100.00
43691;BME280;29293;52.190;21.226;2023-04-07T14:13:59;100377.27;;;10.55;100.00
43691;BME280;29293;52.190;21.226;2023-04-07T14:29:06;100391.78;;;10.08;100.00
43691;BME280;29293;52.190;21.226;2023-04-07T14:44:13;100409.81;;;9.80;100.00
43691;BME280;29293;52.190;21.226;2023-04-07T14:59:21;100414.94;;;9.68;100.00
43691;BME280;29293;52.190;21.226;2023-04-07T15:14:28;100423.10;;;9.73;100.00
43691;BME280;29293;52.190;21.226;2023-04-07T15:29:35;100434.63;;;9.75;100.00
43691;BME280;29293;52.190;21.226;2023-04-07T15:44:43;100448.95;;;9.65;100.00
43691;BME280;29293;52.190;21.226;2023-04-07T16:15:28;100476.85;;;9.11;100.00
43691;BME280;29293;52.190;21.226;2023-04-07T16:46:00;100523.46;;;8.40;100.00
43691;BME280;29293;52.190;21.226;2023-04-07T17:01:07;100549.51;;;7.91;100.00
43691;BME280;29293;52.190;21.226;2023-04-07T17:16:24;100571.97;;;7.56;100.00
43691;BME280;29293;52.190;21.226;2023-04-07T17:31:32;100591.00;;;7.45;100.00
43691;BME280;29293;52.190;21.226;2023-04-07T17:46:40;100609.63;;;7.42;100.00
43691;BME280;29293;52.190;21.226;2023-04-07T18:01:50;100635.33;;;7.30;100.00
43691;BME280;29293;52.190;21.226;2023-04-07T18:17:19;100664.00;;;7.16;100.00
43691;BME280;29293;52.190;21.226;2023-04-07T18:32:37;100692.23;;;7.02;100.00
43691;BME280;29293;52.190;21.226;2023-04-07T18:47:44;100705.02;;;6.88;100.00
43691;BME280;29293;52.190;21.226;2023-04-07T19:02:52;100732.96;;;6.74;100.00
43691;BME280;29293;52.190;21.226;2023-04-07T19:17:59;100749.19;;;6.64;100.00
43691;BME280;29293;52.190;21.226;2023-04-07T19:33:06;100764.97;;;6.58;100.00
43691;BME280;29293;52.190;21.226;2023-04-07T19:48:13;100776.56;;;6.42;100.00
43691;BME280;29293;52.190;21.226;2023-04-07T20:03:21;100798.64;;;6.06;100.00
43691;BME280;29293;52.190;21.226;2023-04-07T20:18:51;100825.52;;;5.76;100.00
43691;BME280;29293;52.190;21.226;2023-04-07T20:34:08;100848.85;;;5.39;100.00
43691;BME280;29293;52.190;21.226;2023-04-07T20:49:23;100862.67;;;5.01;100.00
43691;BME280;29293;52.190;21.226;2023-04-07T21:04:30;100870.53;;;4.88;100.00
43691;BME280;29293;52.190;21.226;2023-04-07T21:19:39;100874.67;;;4.88;100.00
43691;BME280;29293;52.190;21.226;2023-04-07T21:34:49;100883.98;;;4.84;100.00
43691;BME280;29293;52.190;21.226;2023-04-07T21:49:57;100900.22;;;4.83;100.00
43691;BME280;29293;52.190;21.226;2023-04-07T22:05:04;100915.41;;;4.79;100.00
43691;BME280;29293;52.190;21.226;2023-04-07T22:20:12;100919.55;;;4.74;100.00
43691;BME280;29293;52.190;21.226;2023-04-07T22:35:22;100921.38;;;4.67;100.00
43691;BME280;29293;52.190;21.226;2023-04-07T22:50:29;100934.92;;;4.62;100.00
43691;BME280;29293;52.190;21.226;2023-04-07T23:05:37;100934.80;;;4.56;100.00
43691;BME280;29293;52.190;21.226;2023-04-07T23:20:50;100940.02;;;4.52;100.00
43691;BME280;29293;52.190;21.226;2023-04-07T23:35:58;100936.30;;;4.47;100.00
43691;BME280;29293;52.190;21.226;2023-04-07T23:51:27;100932.11;;;4.45;100.00
